Time;durP1;ratioP1;P1;durP2;ratioP2;P2;SDS_P1;SDS_P2;PMS_P1;PMS_P2;Temp;Humidity;BMP_temperature;BMP_pressure;BME280_temperature;BME280_humidity;BME280_pressure;Samples;Min_cycle;Max_cycle;Signal;HPM_P1;HPM_P2
2023/05/05 00:00:25;;;;;;;5.6;2.9;;;;;;;12.14;82.77539;939.7537;;;;
2023/05/05 00:02:49;;;;;;;3.2;2.5;;;;;;;12.15;82.48145;939.7522;;;;
2023/05/05 00:05:16;;;;;;;3.3;2.9;;;;;;;11.94;83.89258;939.7186;;;;
2023/05/05 00:07:41;;;;;;;3;2.6;;;;;;;11.89;83.92969;939.7709;;;;
2023/05/05 00:10:08;;;;;;;2.9;2.7;;;;;;;12.02;83.41602;939.7338;;;;
2023/05/05 00:12:33;;;;;;;3.7;2.7;;;;;;;12.01;82.91211;939.6984;;;;
2023/05/05 00:15:00;;;;;;;3;2.3;;;;;;;12.02;82.74219;939.7187;;;;
2023/05/05 00:17:25;;;;;;;3.3;2.6;;;;;;;11.94;82.87305;939.7402;;;;
2023/05/05 00:19:51;;;;;;;3;2.7;;;;;;;11.9;83.25781;939.716;;;;
2023/05/05 00:22:16;;;;;;;2.9;2.6;;;;;;;11.74;84.14258;939.7455;;;;
2023/05/05 00:24:43;;;;;;;3.7;2.6;;;;;;;11.58;85.08398;939.8038;;;;
2023/05/05 00:27:08;;;;;;;3;2.7;;;;;;;11.55;85.04395;939.7269;;;;
2023/05/05 00:29:34;;;;;;;3.6;2.8;;;;;;;11.57;85.01465;939.7614;;;;
2023/05/05 00:31:59;;;;;;;3;2.5;;;;;;;11.67;84.4834;939.6851;;;;
2023/05/05 00:34:26;;;;;;;2.8;2.4;;;;;;;11.76;83.52637;939.7798;;;;
2023/05/05 00:36:52;;;;;;;3.1;2.6;;;;;;;11.74;83.375;939.7319;;;;
2023/05/05 00:39:16;;;;;;;3;2.6;;;;;;;11.7;83.98438;939.6845;;;;
2023/05/05 00:41:41;;;;;;;2.8;2.6;;;;;;;11.5;84.83887;939.8016;;;;
2023/05/05 00:44:08;;;;;;;3.2;2.8;;;;;;;11.49;84.79297;939.7896;;;;
2023/05/05 00:46:33;;;;;;;2.8;2.3;;;;;;;11.56;84.60938;939.8108;;;;
2023/05/05 00:48:58;;;;;;;3.7;2.6;;;;;;;11.53;84.67285;939.7729;;;;
2023/05/05 00:51:23;;;;;;;4.3;2.5;;;;;;;11.59;84.50195;939.7496;;;;
2023/05/05 00:53:48;;;;;;;3.1;2.3;;;;;;;11.73;83.93457;939.7509;;;;
2023/05/05 00:56:14;;;;;;;2.9;2.6;;;;;;;11.78;83.62305;939.7019;;;;
2023/05/05 00:58:39;;;;;;;2.7;2.4;;;;;;;11.5;84.99902;939.7185;;;;
2023/05/05 01:01:04;;;;;;;3.6;2.5;;;;;;;11.6;84.6748;939.6795;;;;
2023/05/05 01:03:30;;;;;;;4.3;2.5;;;;;;;11.73;84.07227;939.5787;;;;
2023/05/05 01:05:55;;;;;;;3.3;2.4;;;;;;;11.84;83.24512;939.6303;;;;
2023/05/05 01:08:20;;;;;;;4.4;2.8;;;;;;;11.91;83.00586;939.6442;;;;
2023/05/05 01:10:45;;;;;;;3.3;2.9;;;;;;;12.02;82.34082;939.6238;;;;
2023/05/05 01:13:10;;;;;;;4.3;3.1;;;;;;;12;82.24414;939.6719;;;;
2023/05/05 01:15:37;;;;;;;3.8;2.9;;;;;;;11.48;84.51465;939.6434;;;;
2023/05/05 01:18:02;;;;;;;3.6;2.8;;;;;;;11.2;86.11816;939.6979;;;;
2023/05/05 01:20:27;;;;;;;2.8;2.3;;;;;;;11.31;86.09473;939.6043;;;;
2023/05/05 01:22:52;;;;;;;3;2.6;;;;;;;11.34;85.80371;939.611;;;;
2023/05/05 01:25:17;;;;;;;4.7;2.7;;;;;;;11.44;85.44434;939.6344;;;;
2023/05/05 01:27:44;;;;;;;3.2;2.5;;;;;;;11.58;84.5;939.6809;;;;
2023/05/05 01:30:09;;;;;;;2.7;2.3;;;;;;;11.7;83.6875;939.6646;;;;
2023/05/05 01:32:34;;;;;;;3.6;2.7;;;;;;;11.72;83.23438;939.7031;;;;
2023/05/05 01:35:01;;;;;;;2.9;2.5;;;;;;;11.71;83.48438;939.6998;;;;
2023/05/05 01:37:27;;;;;;;2.7;2.5;;;;;;;11.6;84.01172;939.6603;;;;
2023/05/05 01:39:52;;;;;;;3;2.5;;;;;;;11.67;83.72754;939.6077;;;;
2023/05/05 01:42:18;;;;;;;3.2;2.6;;;;;;;11.74;83.5;939.6584;;;;
2023/05/05 01:44:44;;;;;;;4.2;2.6;;;;;;;11.57;83.62891;939.6713;;;;
2023/05/05 01:47:08;;;;;;;2.4;2.2;;;;;;;11.42;84.68555;939.6924;;;;
2023/05/05 01:49:36;;;;;;;2.8;2.6;;;;;;;11.33;85.12598;939.6642;;;;
2023/05/05 01:52:02;;;;;;;2.9;2.5;;;;;;;11.4;84.8877;939.6713;;;;
2023/05/05 01:54:28;;;;;;;2.4;2.2;;;;;;;11.48;84.75391;939.6475;;;;
2023/05/05 01:56:53;;;;;;;3.4;2.8;;;;;;;;;;;;;
2023/05/05 01:59:18;;;;;;;15.6;10.5;;;;;;;;;;;;;
2023/05/05 02:01:46;;;;;;;13.1;8.2;;;;;;;;;;;;;
2023/05/05 02:04:10;;;;;;;11.4;8;;;;;;;;;;;;;
2023/05/05 02:06:34;;;;;;;8.9;6.6;;;;;;;;;;;;;
2023/05/05 02:08:59;;;;;;;6.7;4.8;;;;;;;;;;;;;
2023/05/05 02:11:24;;;;;;;6;4.3;;;;;;;;;;;;;
2023/05/05 02:13:50;;;;;;;4.2;3.4;;;;;;;;;;;;;
2023/05/05 02:16:15;;;;;;;3.9;3.5;;;;;;;;;;;;;
2023/05/05 02:18:40;;;;;;;3.4;3.1;;;;;;;;;;;;;
2023/05/05 02:21:06;;;;;;;3.1;2.8;;;;;;;;;;;;;
2023/05/05 02:23:31;;;;;;;3;2.7;;;;;;;;;;;;;
2023/05/05 02:25:57;;;;;;;3.5;2.6;;;;;;;;;;;;;
2023/05/05 02:28:22;;;;;;;3.3;2.8;;;;;;;;;;;;;
2023/05/05 02:30:47;;;;;;;3.4;2.9;;;;;;;;;;;;;
2023/05/05 02:33:13;;;;;;;3.2;2.4;;;;;;;;;;;;;
2023/05/05 02:35:38;;;;;;;3.2;2.6;;;;;;;;;;;;;
2023/05/05 02:38:04;;;;;;;3.8;2.8;;;;;;;;;;;;;
2023/05/05 02:40:28;;;;;;;3.5;2.5;;;;;;;;;;;;;
2023/05/05 02:42:54;;;;;;;4.9;3.2;;;;;;;;;;;;;
2023/05/05 02:45:20;;;;;;;4.2;2.6;;;;;;;;;;;;;
2023/05/05 02:47:48;;;;;;;3;2.5;;;;;;;;;;;;;
2023/05/05 02:50:14;;;;;;;3;2.4;;;;;;;;;;;;;
2023/05/05 02:52:41;;;;;;;3.2;2.9;;;;;;;;;;;;;
2023/05/05 02:55:07;;;;;;;3.7;2.6;;;;;;;;;;;;;
2023/05/05 02:57:32;;;;;;;2.5;2.2;;;;;;;;;;;;;
2023/05/05 02:59:57;;;;;;;3.6;2.4;;;;;;;;;;;;;
2023/05/05 03:02:22;;;;;;;3.1;2.4;;;;;;;;;;;;;
2023/05/05 03:04:48;;;;;;;2.4;2.2;;;;;;;;;;;;;
2023/05/05 03:07:13;;;;;;;2.6;2.4;;;;;;;;;;;;;
2023/05/05 03:09:38;;;;;;;3.1;2.5;;;;;;;;;;;;;
2023/05/05 03:12:03;;;;;;;3.4;2.7;;;;;;;;;;;;;
2023/05/05 03:14:28;;;;;;;3.6;2.8;;;;;;;;;;;;;
2023/05/05 03:16:53;;;;;;;3.4;2.9;;;;;;;;;;;;;
2023/05/05 03:19:18;;;;;;;4.1;2.9;;;;;;;;;;;;;
2023/05/05 03:21:43;;;;;;;3.4;3;;;;;;;;;;;;;
2023/05/05 03:24:09;;;;;;;3.5;2.8;;;;;;;;;;;;;
2023/05/05 03:26:34;;;;;;;2.6;2.4;;;;;;;;;;;;;
2023/05/05 03:29:00;;;;;;;3.4;2.8;;;;;;;;;;;;;
2023/05/05 03:31:27;;;;;;;2.9;2.5;;;;;;;;;;;;;
2023/05/05 03:33:53;;;;;;;3.1;2.7;;;;;;;;;;;;;
2023/05/05 03:36:18;;;;;;;2.6;2.4;;;;;;;;;;;;;
2023/05/05 03:38:44;;;;;;;3;2.5;;;;;;;;;;;;;
2023/05/05 03:41:09;;;;;;;2.6;2.3;;;;;;;;;;;;;
2023/05/05 03:43:38;;;;;;;4.7;3;;;;;;;;;;;;;
2023/05/05 03:46:01;;;;;;;2.6;2.4;;;;;;;;;;;;;
2023/05/05 03:48:26;;;;;;;2.9;2.3;;;;;;;;;;;;;
2023/05/05 03:50:51;;;;;;;2.3;2.1;;;;;;;;;;;;;
2023/05/05 03:53:18;;;;;;;2.6;2.4;;;;;;;;;;;;;
2023/05/05 03:55:43;;;;;;;4.2;2.6;;;;;;;;;;;;;
2023/05/05 03:58:08;;;;;;;2.7;2.5;;;;;;;;;;;;;
2023/05/05 04:02:42;;;;;;;3.2;2.6;;;;;;;11.47;85.41699;939.6131;;;;
2023/05/05 04:05:06;;;;;;;3.4;2.6;;;;;;;11.54;84.87988;939.6072;;;;
2023/05/05 04:07:38;;;;;;;3.3;2.7;;;;;;;11.47;84.73047;939.606;;;;
2023/05/05 04:10:09;;;;;;;4.4;3;;;;;;;11.34;85.51855;939.6325;;;;
2023/05/05 04:12:39;;;;;;;4;3;;;;;;;11.23;85.82813;939.6212;;;;
2023/05/05 04:15:12;;;;;;;3.9;3.1;;;;;;;11.23;85.98633;939.6633;;;;
2023/05/05 04:17:41;;;;;;;4.6;3.1;;;;;;;11.36;85.90918;939.6646;;;;
2023/05/05 04:20:20;;;;;;;3.5;2.6;;;;;;;11.41;85.37012;939.637;;;;
2023/05/05 04:22:44;;;;;;;3.5;2.9;;;;;;;11.38;85.67188;939.722;;;;
2023/05/05 04:25:19;;;;;;;5.3;3.2;;;;;;;11.38;85.58105;939.718;;;;
2023/05/05 04:27:51;;;;;;;4.5;3.5;;;;;;;11.51;84.88672;939.6876;;;;
2023/05/05 04:30:19;;;;;;;6.5;3.7;;;;;;;11.54;84.90332;939.7563;;;;
2023/05/05 04:32:52;;;;;;;6.5;3.9;;;;;;;11.47;85.49512;939.7103;;;;
2023/05/05 04:35:19;;;;;;;4.8;3;;;;;;;11.53;85.16504;939.7619;;;;
2023/05/05 04:37:46;;;;;;;3.6;2.9;;;;;;;;;;;;;
2023/05/05 04:40:12;;;;;;;3.4;2.5;;;;;;;;;;;;;
2023/05/05 04:42:37;;;;;;;3.1;2.6;;;;;;;;;;;;;
2023/05/05 04:45:02;;;;;;;3.6;3;;;;;;;;;;;;;
2023/05/05 04:47:29;;;;;;;3.8;2.5;;;;;;;;;;;;;
2023/05/05 04:49:54;;;;;;;3.2;2.6;;;;;;;;;;;;;
2023/05/05 04:52:22;;;;;;;4.6;2.6;;;;;;;;;;;;;
2023/05/05 04:54:47;;;;;;;3.8;2.3;;;;;;;;;;;;;
2023/05/05 04:57:13;;;;;;;4.4;2.8;;;;;;;;;;;;;
2023/05/05 04:59:38;;;;;;;3.8;2.2;;;;;;;;;;;;;
2023/05/05 05:02:05;;;;;;;4;2.8;;;;;;;;;;;;;
2023/05/05 05:04:29;;;;;;;3.4;2.9;;;;;;;;;;;;;
2023/05/05 05:06:57;;;;;;;2.7;2.3;;;;;;;;;;;;;
2023/05/05 05:09:22;;;;;;;4.4;2.4;;;;;;;;;;;;;
2023/05/05 05:11:49;;;;;;;4.5;2.8;;;;;;;;;;;;;
2023/05/05 05:14:14;;;;;;;2.1;1.9;;;;;;;;;;;;;
2023/05/05 05:16:40;;;;;;;2.1;1.9;;;;;;;;;;;;;
2023/05/05 05:19:04;;;;;;;2.5;2.1;;;;;;;;;;;;;
2023/05/05 05:21:32;;;;;;;2.6;2;;;;;;;;;;;;;
2023/05/05 05:23:56;;;;;;;3.1;2.4;;;;;;;;;;;;;
2023/05/05 05:26:22;;;;;;;2.8;2.1;;;;;;;;;;;;;
2023/05/05 05:28:47;;;;;;;2.9;2;;;;;;;;;;;;;
2023/05/05 05:31:13;;;;;;;3.8;2.3;;;;;;;;;;;;;
2023/05/05 05:33:38;;;;;;;3;2;;;;;;;;;;;;;
2023/05/05 05:36:07;;;;;;;2.4;2.2;;;;;;;;;;;;;
2023/05/05 05:38:32;;;;;;;2.2;2;;;;;;;;;;;;;
2023/05/05 05:41:00;;;;;;;2.7;2.5;;;;;;;;;;;;;
2023/05/05 05:43:25;;;;;;;3.4;2.8;;;;;;;;;;;;;
2023/05/05 05:45:52;;;;;;;4.4;3.1;;;;;;;;;;;;;
2023/05/05 05:48:17;;;;;;;4.6;3.3;;;;;;;;;;;;;
2023/05/05 05:50:44;;;;;;;4.6;3.4;;;;;;;;;;;;;
2023/05/05 05:53:09;;;;;;;5.8;3.9;;;;;;;;;;;;;
2023/05/05 05:55:34;;;;;;;5.9;3.3;;;;;;;;;;;;;
2023/05/05 05:57:59;;;;;;;8.3;4.2;;;;;;;;;;;;;
2023/05/05 06:00:27;;;;;;;6.6;4.1;;;;;;;;;;;;;
2023/05/05 06:02:52;;;;;;;7.5;4.1;;;;;;;;;;;;;
2023/05/05 06:05:20;;;;;;;4.4;2.7;;;;;;;;;;;;;
2023/05/05 06:07:45;;;;;;;2.8;2.5;;;;;;;;;;;;;
2023/05/05 06:10:11;;;;;;;3.4;3;;;;;;;;;;;;;
2023/05/05 06:12:36;;;;;;;2.8;2.4;;;;;;;;;;;;;
2023/05/05 06:15:01;;;;;;;3.1;2.3;;;;;;;;;;;;;
2023/05/05 06:17:27;;;;;;;3.4;2.2;;;;;;;;;;;;;
2023/05/05 06:19:52;;;;;;;2.7;2.2;;;;;;;;;;;;;
2023/05/05 06:22:17;;;;;;;2.8;2.4;;;;;;;;;;;;;
2023/05/05 06:24:43;;;;;;;2;1.8;;;;;;;;;;;;;
2023/05/05 06:27:08;;;;;;;2.4;1.9;;;;;;;;;;;;;
2023/05/05 06:29:34;;;;;;;1.9;1.6;;;;;;;;;;;;;
2023/05/05 06:32:00;;;;;;;3.3;1.9;;;;;;;;;;;;;
2023/05/05 06:34:25;;;;;;;7;1.7;;;;;;;;;;;;;
2023/05/05 06:36:50;;;;;;;3.2;1.9;;;;;;;;;;;;;
2023/05/05 06:39:17;;;;;;;2.1;1.9;;;;;;;;;;;;;
2023/05/05 06:41:42;;;;;;;3.4;2.5;;;;;;;;;;;;;
2023/05/05 06:44:07;;;;;;;2.3;2.1;;;;;;;;;;;;;
2023/05/05 06:46:33;;;;;;;2.8;2.2;;;;;;;;;;;;;
2023/05/05 06:48:58;;;;;;;2.8;2.4;;;;;;;;;;;;;
2023/05/05 06:51:23;;;;;;;2.1;1.9;;;;;;;;;;;;;
2023/05/05 06:53:50;;;;;;;3.1;1.7;;;;;;;;;;;;;
2023/05/05 06:56:16;;;;;;;2.5;1.8;;;;;;;;;;;;;
2023/05/05 06:58:42;;;;;;;1.9;1.7;;;;;;;;;;;;;
2023/05/05 07:01:06;;;;;;;2.2;1.7;;;;;;;;;;;;;
2023/05/05 07:03:33;;;;;;;1.9;1.7;;;;;;;;;;;;;
2023/05/05 07:05:58;;;;;;;1.9;1.4;;;;;;;;;;;;;
2023/05/05 07:08:25;;;;;;;1.5;1.4;;;;;;;;;;;;;
2023/05/05 07:10:50;;;;;;;2.1;1.5;;;;;;;;;;;;;
2023/05/05 07:13:15;;;;;;;2.6;1.5;;;;;;;;;;;;;
2023/05/05 07:15:44;;;;;;;2;1.7;;;;;;;;;;;;;
2023/05/05 07:18:05;;;;;;;3.3;1.5;;;;;;;;;;;;;
2023/05/05 07:20:31;;;;;;;1.7;1.4;;;;;;;;;;;;;
2023/05/05 07:22:56;;;;;;;1.5;1.2;;;;;;;;;;;;;
2023/05/05 07:25:21;;;;;;;1.8;1.4;;;;;;;;;;;;;
2023/05/05 07:27:46;;;;;;;1.3;1.2;;;;;;;;;;;;;
2023/05/05 07:30:15;;;;;;;1.4;1.3;;;;;;;;;;;;;
2023/05/05 07:32:40;;;;;;;2;1.5;;;;;;;;;;;;;
2023/05/05 07:35:05;;;;;;;1.4;1.3;;;;;;;;;;;;;
2023/05/05 07:37:30;;;;;;;1.4;1.3;;;;;;;;;;;;;
2023/05/05 07:39:55;;;;;;;1.4;1.3;;;;;;;;;;;;;
2023/05/05 07:42:21;;;;;;;1.2;1.1;;;;;;;;;;;;;
2023/05/05 07:44:48;;;;;;;3;1.3;;;;;;;;;;;;;
2023/05/05 07:47:13;;;;;;;1.9;1.6;;;;;;;;;;;;;
2023/05/05 07:49:38;;;;;;;1.2;1.1;;;;;;;;;;;;;
2023/05/05 07:52:03;;;;;;;1.9;1.2;;;;;;;;;;;;;
2023/05/05 07:54:30;;;;;;;1.6;1.2;;;;;;;;;;;;;
2023/05/05 07:56:56;;;;;;;2.2;1.3;;;;;;;;;;;;;
2023/05/05 07:59:21;;;;;;;1.1;1.1;;;;;;;;;;;;;
2023/05/05 08:01:46;;;;;;;1.2;1.1;;;;;;;;;;;;;
2023/05/05 08:04:13;;;;;;;1.4;1.2;;;;;;;;;;;;;
2023/05/05 08:06:38;;;;;;;1.5;1.3;;;;;;;;;;;;;
2023/05/05 08:09:04;;;;;;;1.4;1.3;;;;;;;;;;;;;
2023/05/05 08:11:29;;;;;;;1.9;1.3;;;;;;;;;;;;;
2023/05/05 08:13:55;;;;;;;1.4;1.3;;;;;;;;;;;;;
2023/05/05 08:16:20;;;;;;;1.4;1.3;;;;;;;;;;;;;
2023/05/05 08:18:47;;;;;;;1.2;1.1;;;;;;;;;;;;;
2023/05/05 08:21:12;;;;;;;1.9;1.2;;;;;;;;;;;;;
2023/05/05 08:23:37;;;;;;;1.1;1.1;;;;;;;;;;;;;
2023/05/05 08:26:03;;;;;;;1.4;1.3;;;;;;;;;;;;;
2023/05/05 08:28:30;;;;;;;1.4;1.3;;;;;;;;;;;;;
2023/05/05 08:30:55;;;;;;;1.1;1.1;;;;;;;;;;;;;
2023/05/05 08:33:20;;;;;;;1.8;1.3;;;;;;;;;;;;;
2023/05/05 08:35:45;;;;;;;2;1.6;;;;;;;;;;;;;
2023/05/05 08:38:11;;;;;;;1.3;1.2;;;;;;;;;;;;;
2023/05/05 08:40:36;;;;;;;1.3;1.2;;;;;;;;;;;;;
2023/05/05 08:43:02;;;;;;;1.4;1.3;;;;;;;;;;;;;
2023/05/05 08:45:27;;;;;;;1.5;1.4;;;;;;;;;;;;;
2023/05/05 08:47:53;;;;;;;1.7;1.4;;;;;;;;;;;;;
2023/05/05 08:50:19;;;;;;;1.4;1.3;;;;;;;;;;;;;
2023/05/05 08:52:48;;;;;;;1.3;1.2;;;;;;;;;;;;;
2023/05/05 08:55:13;;;;;;;1.2;1.1;;;;;;;;;;;;;
2023/05/05 08:57:39;;;;;;;1.4;1.3;;;;;;;;;;;;;
2023/05/05 09:00:04;;;;;;;1.2;1.2;;;;;;;;;;;;;
2023/05/05 09:02:29;;;;;;;1.9;1.4;;;;;;;;;;;;;
2023/05/05 09:04:59;;;;;;;1.3;1.2;;;;;;;;;;;;;
2023/05/05 09:07:22;;;;;;;1.7;1.3;;;;;;;;;;;;;
2023/05/05 09:09:47;;;;;;;1.5;1.4;;;;;;;;;;;;;
2023/05/05 09:12:14;;;;;;;1.2;1.1;;;;;;;;;;;;;
2023/05/05 09:14:39;;;;;;;1.3;1.2;;;;;;;;;;;;;
2023/05/05 09:17:04;;;;;;;1.7;1.2;;;;;;;;;;;;;
2023/05/05 09:19:29;;;;;;;2.1;1.1;;;;;;;;;;;;;
2023/05/05 09:21:55;;;;;;;3.6;1.8;;;;;;;;;;;;;
2023/05/05 09:24:20;;;;;;;1.2;1.1;;;;;;;;;;;;;
2023/05/05 09:26:45;;;;;;;1.4;1.3;;;;;;;;;;;;;
2023/05/05 09:29:11;;;;;;;1.2;1.1;;;;;;;;;;;;;
2023/05/05 09:31:36;;;;;;;1.4;1.3;;;;;;;;;;;;;
2023/05/05 09:34:03;;;;;;;1.4;1.2;;;;;;;;;;;;;
2023/05/05 09:36:26;;;;;;;1.4;1.3;;;;;;;;;;;;;
2023/05/05 09:38:51;;;;;;;1.4;1.3;;;;;;;;;;;;;
2023/05/05 09:41:16;;;;;;;1.3;1.2;;;;;;;;;;;;;
2023/05/05 09:43:42;;;;;;;1.6;1.1;;;;;;;;;;;;;
2023/05/05 09:46:07;;;;;;;1.3;1.2;;;;;;;;;;;;;
2023/05/05 09:48:32;;;;;;;1.7;1.4;;;;;;;;;;;;;
2023/05/05 09:50:57;;;;;;;1.6;1.3;;;;;;;;;;;;;
2023/05/05 09:53:23;;;;;;;1.6;1.4;;;;;;;;;;;;;
2023/05/05 09:55:48;;;;;;;1.2;1.1;;;;;;;;;;;;;
2023/05/05 09:58:14;;;;;;;1.2;1.2;;;;;;;;;;;;;
2023/05/05 10:00:40;;;;;;;1.4;1.3;;;;;;;;;;;;;
2023/05/05 10:03:05;;;;;;;1.4;1.3;;;;;;;;;;;;;
2023/05/05 10:05:30;;;;;;;1.8;1.2;;;;;;;;;;;;;
2023/05/05 10:07:55;;;;;;;1.4;1.3;;;;;;;;;;;;;
2023/05/05 10:10:20;;;;;;;2.6;1.3;;;;;;;;;;;;;
2023/05/05 10:12:48;;;;;;;4.8;2;;;;;;;;;;;;;
2023/05/05 10:15:12;;;;;;;2.3;1.5;;;;;;;;;;;;;
2023/05/05 10:17:39;;;;;;;1.5;1.4;;;;;;;;;;;;;
2023/05/05 10:20:04;;;;;;;1.4;1.3;;;;;;;;;;;;;
2023/05/05 10:22:30;;;;;;;1.5;1.3;;;;;;;;;;;;;
2023/05/05 10:24:55;;;;;;;1.3;1.2;;;;;;;;;;;;;
2023/05/05 10:27:20;;;;;;;1.5;1.4;;;;;;;;;;;;;
2023/05/05 10:29:48;;;;;;;1.3;1.2;;;;;;;;;;;;;
2023/05/05 10:32:13;;;;;;;1.7;1.5;;;;;;;;;;;;;
2023/05/05 10:34:39;;;;;;;1.4;1.3;;;;;;;;;;;;;
2023/05/05 10:37:04;;;;;;;1.8;1.3;;;;;;;;;;;;;
2023/05/05 10:39:30;;;;;;;2.7;1.3;;;;;;;;;;;;;
2023/05/05 10:41:55;;;;;;;2;1.3;;;;;;;;;;;;;
2023/05/05 10:44:20;;;;;;;1.3;1.2;;;;;;;;;;;;;
2023/05/05 10:46:45;;;;;;;1.5;1.4;;;;;;;;;;;;;
2023/05/05 10:49:12;;;;;;;1.6;1.3;;;;;;;;;;;;;
2023/05/05 10:51:37;;;;;;;1.2;1.2;;;;;;;;;;;;;
2023/05/05 10:54:02;;;;;;;1.4;1.3;;;;;;;;;;;;;
2023/05/05 10:56:28;;;;;;;1.6;1.5;;;;;;;;;;;;;
2023/05/05 10:58:53;;;;;;;2.4;1.5;;;;;;;;;;;;;
2023/05/05 11:01:18;;;;;;;1.5;1.4;;;;;;;;;;;;;
2023/05/05 11:03:44;;;;;;;2.2;1.1;;;;;;;;;;;;;
2023/05/05 11:06:11;;;;;;;1.8;1.4;;;;;;;;;;;;;
2023/05/05 11:08:34;;;;;;;1.3;1.2;;;;;;;;;;;;;
2023/05/05 11:11:01;;;;;;;1.3;1.1;;;;;;;;;;;;;
2023/05/05 11:13:26;;;;;;;1.4;1.2;;;;;;;;;;;;;
2023/05/05 11:15:53;;;;;;;1.5;1.3;;;;;;;;;;;;;
2023/05/05 11:18:18;;;;;;;1.3;1.2;;;;;;;;;;;;;
2023/05/05 11:20:47;;;;;;;1.3;1.2;;;;;;;;;;;;;
2023/05/05 11:23:13;;;;;;;1.5;1.4;;;;;;;;;;;;;
2023/05/05 11:25:39;;;;;;;1.3;1.2;;;;;;;;;;;;;
2023/05/05 11:28:05;;;;;;;1.1;1.1;;;;;;;;;;;;;
2023/05/05 11:30:30;;;;;;;1.5;1.4;;;;;;;;;;;;;
2023/05/05 11:32:56;;;;;;;1.7;1.5;;;;;;;;;;;;;
2023/05/05 11:35:23;;;;;;;1.6;1.1;;;;;;;;;;;;;
2023/05/05 11:37:49;;;;;;;2.2;1.2;;;;;;;;;;;;;
2023/05/05 11:40:14;;;;;;;1.9;1.3;;;;;;;;;;;;;
2023/05/05 11:42:39;;;;;;;1.7;1.4;;;;;;;;;;;;;
2023/05/05 11:45:05;;;;;;;1.9;1.2;;;;;;;;;;;;;
2023/05/05 11:47:30;;;;;;;1.6;1.5;;;;;;;;;;;;;
2023/05/05 11:49:56;;;;;;;1.4;1.3;;;;;;;;;;;;;
2023/05/05 11:52:20;;;;;;;2.3;1.5;;;;;;;;;;;;;
2023/05/05 11:54:47;;;;;;;1.7;1.6;;;;;;;;;;;;;
2023/05/05 11:57:10;;;;;;;1.3;1.2;;;;;;;;;;;;;
2023/05/05 11:59:37;;;;;;;1.7;1.2;;;;;;;;;;;;;
2023/05/05 12:02:03;;;;;;;1.3;1.2;;;;;;;;;;;;;
2023/05/05 12:04:29;;;;;;;1.4;1.3;;;;;;;;;;;;;
2023/05/05 12:06:54;;;;;;;2.3;1.5;;;;;;;;;;;;;
2023/05/05 12:09:19;;;;;;;1.1;1;;;;;;;;;;;;;
2023/05/05 12:11:45;;;;;;;1.2;1.1;;;;;;;;;;;;;
2023/05/05 12:14:12;;;;;;;1.4;1.3;;;;;;;;;;;;;
2023/05/05 12:16:38;;;;;;;1.4;1.3;;;;;;;;;;;;;
2023/05/05 12:19:04;;;;;;;2.7;1.6;;;;;;;;;;;;;
2023/05/05 12:21:29;;;;;;;1.8;1.4;;;;;;;;;;;;;
2023/05/05 12:23:54;;;;;;;2.3;1.4;;;;;;;;;;;;;
2023/05/05 12:26:20;;;;;;;1.5;1.4;;;;;;;;;;;;;
2023/05/05 12:28:46;;;;;;;2;1.4;;;;;;;;;;;;;
2023/05/05 12:31:11;;;;;;;1.3;1.2;;;;;;;;;;;;;
2023/05/05 12:33:36;;;;;;;1.5;1.4;;;;;;;;;;;;;
2023/05/05 12:36:03;;;;;;;1.3;1.2;;;;;;;;;;;;;
2023/05/05 12:38:27;;;;;;;1.5;1.4;;;;;;;;;;;;;
2023/05/05 12:40:54;;;;;;;1.8;1.5;;;;;;;;;;;;;
2023/05/05 12:43:18;;;;;;;1.4;1.3;;;;;;;;;;;;;
2023/05/05 12:45:44;;;;;;;1.5;1.3;;;;;;;;;;;;;
2023/05/05 12:48:09;;;;;;;1.5;1.4;;;;;;;;;;;;;
2023/05/05 12:50:34;;;;;;;1.5;1.4;;;;;;;;;;;;;
2023/05/05 12:52:59;;;;;;;1.4;1.3;;;;;;;;;;;;;
2023/05/05 12:55:24;;;;;;;1.8;1.5;;;;;;;;;;;;;
2023/05/05 12:57:49;;;;;;;1.6;1.5;;;;;;;;;;;;;
2023/05/05 13:00:16;;;;;;;1.3;1.2;;;;;;;;;;;;;
2023/05/05 13:02:41;;;;;;;2.2;1.4;;;;;;;;;;;;;
2023/05/05 13:05:07;;;;;;;2.1;1.6;;;;;;;;;;;;;
2023/05/05 13:07:32;;;;;;;1.7;1.6;;;;;;;;;;;;;
2023/05/05 13:09:58;;;;;;;1.5;1.4;;;;;;;;;;;;;
2023/05/05 13:12:24;;;;;;;1.4;1.3;;;;;;;;;;;;;
2023/05/05 13:14:49;;;;;;;1.4;1.3;;;;;;;;;;;;;
2023/05/05 13:17:14;;;;;;;3.4;1.4;;;;;;;;;;;;;
2023/05/05 13:19:44;;;;;;;2.9;1.7;;;;;;;;;;;;;
2023/05/05 13:22:04;;;;;;;1.6;1.5;;;;;;;;;;;;;
2023/05/05 13:24:31;;;;;;;1.4;1.3;;;;;;;;;;;;;
2023/05/05 13:26:56;;;;;;;2;1.6;;;;;;;;;;;;;
2023/05/05 13:29:21;;;;;;;2.6;1.5;;;;;;;;;;;;;
2023/05/05 13:31:46;;;;;;;1.5;1.4;;;;;;;;;;;;;
2023/05/05 13:34:14;;;;;;;2;1.5;;;;;;;;;;;;;
2023/05/05 13:36:40;;;;;;;1.8;1.7;;;;;;;;;;;;;
2023/05/05 13:39:07;;;;;;;1.6;1.4;;;;;;;;;;;;;
2023/05/05 13:41:31;;;;;;;1.5;1.3;;;;;;;;;;;;;
2023/05/05 13:43:58;;;;;;;1.8;1.3;;;;;;;;;;;;;
2023/05/05 13:46:23;;;;;;;1.4;1.3;;;;;;;;;;;;;
2023/05/05 13:48:50;;;;;;;1.8;1.5;;;;;;;;;;;;;
2023/05/05 13:51:15;;;;;;;1.5;1.4;;;;;;;;;;;;;
2023/05/05 13:53:43;;;;;;;1.5;1.3;;;;;;;;;;;;;
2023/05/05 13:56:08;;;;;;;1.9;1.3;;;;;;;;;;;;;
2023/05/05 13:58:33;;;;;;;1.3;1.2;;;;;;;;;;;;;
2023/05/05 14:00:58;;;;;;;1.5;1.4;;;;;;;;;;;;;
2023/05/05 14:03:23;;;;;;;1.8;1.4;;;;;;;;;;;;;
2023/05/05 14:05:49;;;;;;;1.6;1.5;;;;;;;;;;;;;
2023/05/05 14:08:15;;;;;;;1.3;1.2;;;;;;;;;;;;;
2023/05/05 14:10:40;;;;;;;5.4;1.7;;;;;;;;;;;;;
2023/05/05 14:13:06;;;;;;;1.5;1.4;;;;;;;;;;;;;
2023/05/05 14:15:31;;;;;;;2.9;1.4;;;;;;;;;;;;;
2023/05/05 14:17:58;;;;;;;1.9;1.3;;;;;;;;;;;;;
2023/05/05 14:20:22;;;;;;;1.5;1.4;;;;;;;;;;;;;
2023/05/05 14:22:49;;;;;;;1.6;1.5;;;;;;;;;;;;;
2023/05/05 14:25:13;;;;;;;1.5;1.4;;;;;;;;;;;;;
2023/05/05 14:27:39;;;;;;;1.6;1.5;;;;;;;;;;;;;
2023/05/05 14:30:04;;;;;;;1.7;1.6;;;;;;;;;;;;;
2023/05/05 14:32:33;;;;;;;1.9;1.6;;;;;;;;;;;;;
2023/05/05 14:34:58;;;;;;;1.3;1.2;;;;;;;;;;;;;
2023/05/05 14:37:23;;;;;;;1.5;1.4;;;;;;;;;;;;;
2023/05/05 14:39:49;;;;;;;1.6;1.5;;;;;;;;;;;;;
2023/05/05 14:42:14;;;;;;;2;1.8;;;;;;;;;;;;;
2023/05/05 14:44:40;;;;;;;1.5;1.4;;;;;;;;;;;;;
2023/05/05 14:47:06;;;;;;;3.2;1.5;;;;;;;;;;;;;
2023/05/05 14:49:31;;;;;;;1.5;1.4;;;;;;;;;;;;;
2023/05/05 14:51:57;;;;;;;1.5;1.4;;;;;;;;;;;;;
2023/05/05 14:54:22;;;;;;;1.3;1.2;;;;;;;;;;;;;
2023/05/05 14:56:47;;;;;;;1.6;1.5;;;;;;;;;;;;;
2023/05/05 14:59:12;;;;;;;2.6;1.6;;;;;;;;;;;;;
2023/05/05 15:01:38;;;;;;;1.4;1.3;;;;;;;;;;;;;
2023/05/05 15:04:03;;;;;;;1.5;1.4;;;;;;;;;;;;;
2023/05/05 15:06:30;;;;;;;1.6;1.5;;;;;;;;;;;;;
2023/05/05 15:08:55;;;;;;;2.2;1.5;;;;;;;;;;;;;
2023/05/05 15:11:21;;;;;;;2.4;1.4;;;;;;;;;;;;;
2023/05/05 15:13:46;;;;;;;1.2;1.1;;;;;;;;;;;;;
2023/05/05 15:16:12;;;;;;;1.9;1.5;;;;;;;;;;;;;
2023/05/05 15:18:37;;;;;;;1.3;1.2;;;;;;;;;;;;;
2023/05/05 15:21:03;;;;;;;2.6;1.5;;;;;;;;;;;;;
2023/05/05 15:23:27;;;;;;;2.4;1.4;;;;;;;;;;;;;
2023/05/05 15:25:54;;;;;;;1.5;1.4;;;;;;;;;;;;;
2023/05/05 15:28:19;;;;;;;1.3;1.2;;;;;;;;;;;;;
2023/05/05 15:30:46;;;;;;;1.9;1.4;;;;;;;;;;;;;
2023/05/05 15:33:11;;;;;;;1.4;1.3;;;;;;;;;;;;;
2023/05/05 15:35:37;;;;;;;1.8;1.6;;;;;;;;;;;;;
2023/05/05 15:38:02;;;;;;;1.8;1.5;;;;;;;;;;;;;
2023/05/05 15:40:28;;;;;;;1.5;1.4;;;;;;;;;;;;;
2023/05/05 15:42:54;;;;;;;1.9;1.4;;;;;;;;;;;;;
2023/05/05 15:45:19;;;;;;;1.5;1.3;;;;;;;;;;;;;
2023/05/05 15:47:44;;;;;;;1.5;1.4;;;;;;;;;;;;;
2023/05/05 15:50:10;;;;;;;1.6;1.5;;;;;;;;;;;;;
2023/05/05 15:52:35;;;;;;;1.7;1.6;;;;;;;;;;;;;
2023/05/05 15:55:02;;;;;;;1.6;1.5;;;;;;;;;;;;;
2023/05/05 15:57:27;;;;;;;1.8;1.4;;;;;;;;;;;;;
2023/05/05 15:59:52;;;;;;;1.5;1.4;;;;;;;;;;;;;
2023/05/05 16:02:17;;;;;;;2.5;1.7;;;;;;;;;;;;;
2023/05/05 16:04:43;;;;;;;2.5;1.5;;;;;;;;;;;;;
2023/05/05 16:07:09;;;;;;;1.6;1.5;;;;;;;;;;;;;
2023/05/05 16:09:34;;;;;;;1.7;1.4;;;;;;;;;;;;;
2023/05/05 16:12:00;;;;;;;2;1.5;;;;;;;;;;;;;
2023/05/05 16:14:26;;;;;;;1.4;1.3;;;;;;;;;;;;;
2023/05/05 16:16:50;;;;;;;1.4;1.3;;;;;;;;;;;;;
2023/05/05 16:19:16;;;;;;;1.7;1.4;;;;;;;;;;;;;
2023/05/05 16:21:42;;;;;;;1.5;1.4;;;;;;;;;;;;;
2023/05/05 16:24:09;;;;;;;1.6;1.5;;;;;;;;;;;;;
2023/05/05 16:26:34;;;;;;;2.1;1.5;;;;;;;;;;;;;
2023/05/05 16:29:00;;;;;;;1.4;1.3;;;;;;;;;;;;;
2023/05/05 16:31:25;;;;;;;1.8;1.3;;;;;;;;;;;;;
2023/05/05 16:33:52;;;;;;;1.8;1.6;;;;;;;;;;;;;
2023/05/05 16:36:17;;;;;;;2.2;1.6;;;;;;;;;;;;;
2023/05/05 16:38:43;;;;;;;2.5;1.4;;;;;;;;;;;;;
2023/05/05 16:41:08;;;;;;;3.3;1.7;;;;;;;;;;;;;
2023/05/05 16:43:34;;;;;;;2.9;1.6;;;;;;;;;;;;;
2023/05/05 16:45:59;;;;;;;1.7;1.5;;;;;;;;;;;;;
2023/05/05 16:48:25;;;;;;;1.5;1.4;;;;;;;;;;;;;
2023/05/05 16:50:50;;;;;;;2.9;1.4;;;;;;;;;;;;;
2023/05/05 16:53:18;;;;;;;1.3;1.2;;;;;;;;;;;;;
2023/05/05 16:55:43;;;;;;;1.4;1.3;;;;;;;;;;;;;
2023/05/05 16:58:08;;;;;;;2.1;1.6;;;;;;;;;;;;;
2023/05/05 17:00:33;;;;;;;2.8;1.3;;;;;;;;;;;;;
2023/05/05 17:02:59;;;;;;;2;1.4;;;;;;;;;;;;;
2023/05/05 17:05:24;;;;;;;1.9;1.5;;;;;;;;;;;;;
2023/05/05 17:07:50;;;;;;;1.7;1.6;;;;;;;;;;;;;
2023/05/05 17:10:15;;;;;;;1.5;1.4;;;;;;;;;;;;;
2023/05/05 17:12:42;;;;;;;2.5;1.4;;;;;;;;;;;;;
2023/05/05 17:15:07;;;;;;;1.5;1.4;;;;;;;;;;;;;
2023/05/05 17:17:32;;;;;;;2.1;1.9;;;;;;;;;;;;;
2023/05/05 17:19:57;;;;;;;1.7;1.6;;;;;;;;;;;;;
2023/05/05 17:22:24;;;;;;;1.8;1.6;;;;;;;;;;;;;
2023/05/05 17:24:49;;;;;;;3.7;1.7;;;;;;;;;;;;;
2023/05/05 17:27:15;;;;;;;1.7;1.5;;;;;;;;;;;;;
2023/05/05 17:29:41;;;;;;;2;1.8;;;;;;;;;;;;;
2023/05/05 17:32:07;;;;;;;1.9;1.6;;;;;;;;;;;;;
2023/05/05 17:34:32;;;;;;;2.8;1.7;;;;;;;;;;;;;
2023/05/05 17:36:58;;;;;;;1.7;1.6;;;;;;;;;;;;;
2023/05/05 17:39:23;;;;;;;3;1.7;;;;;;;;;;;;;
2023/05/05 17:41:48;;;;;;;2;1.7;;;;;;;;;;;;;
2023/05/05 17:44:14;;;;;;;2;1.7;;;;;;;;;;;;;
2023/05/05 17:46:40;;;;;;;2;1.8;;;;;;;;;;;;;
2023/05/05 17:49:04;;;;;;;2.1;1.7;;;;;;;;;;;;;
2023/05/05 17:51:31;;;;;;;2.4;1.5;;;;;;;;;;;;;
2023/05/05 17:53:55;;;;;;;2.3;1.5;;;;;;;;;;;;;
2023/05/05 17:56:22;;;;;;;1.7;1.6;;;;;;;;;;;;;
2023/05/05 17:58:47;;;;;;;8.3;2.1;;;;;;;;;;;;;
2023/05/05 18:01:12;;;;;;;1.6;1.5;;;;;;;;;;;;;
2023/05/05 18:03:39;;;;;;;4.3;2.4;;;;;;;;;;;;;
2023/05/05 18:06:04;;;;;;;2.9;2;;;;;;;;;;;;;
2023/05/05 18:08:31;;;;;;;2.4;1.9;;;;;;;;;;;;;
2023/05/05 18:10:56;;;;;;;2.4;1.8;;;;;;;;;;;;;
2023/05/05 18:13:22;;;;;;;2.2;2;;;;;;;;;;;;;
2023/05/05 18:15:47;;;;;;;2.3;1.8;;;;;;;;;;;;;
2023/05/05 18:18:15;;;;;;;2.8;1.9;;;;;;;;;;;;;
2023/05/05 18:20:40;;;;;;;4.9;2.2;;;;;;;;;;;;;
2023/05/05 18:23:05;;;;;;;2.9;2.2;;;;;;;;;;;;;
2023/05/05 18:25:31;;;;;;;2.5;2;;;;;;;;;;;;;
2023/05/05 18:27:55;;;;;;;2.3;2.1;;;;;;;;;;;;;
2023/05/05 18:30:20;;;;;;;2.3;2.1;;;;;;;;;;;;;
2023/05/05 18:32:47;;;;;;;1.8;1.7;;;;;;;;;;;;;
2023/05/05 18:35:12;;;;;;;2.6;2.4;;;;;;;;;;;;;
2023/05/05 18:37:40;;;;;;;3;2.4;;;;;;;;;;;;;
2023/05/05 18:40:05;;;;;;;2.6;2.2;;;;;;;;;;;;;
2023/05/05 18:42:30;;;;;;;2.2;2;;;;;;;;;;;;;
2023/05/05 18:44:55;;;;;;;2.1;1.9;;;;;;;;;;;;;
2023/05/05 18:47:21;;;;;;;1.5;1.4;;;;;;;;;;;;;
2023/05/05 18:49:46;;;;;;;1.6;1.5;;;;;;;;;;;;;
2023/05/05 18:52:13;;;;;;;1.5;1.4;;;;;;;;;;;;;
2023/05/05 18:54:37;;;;;;;1.5;0.8;;;;;;;;;;;;;
2023/05/05 18:57:03;;;;;;;1.3;0.6;;;;;;;;;;;;;
2023/05/05 18:59:28;;;;;;;1.3;0.8;;;;;;;;;;;;;
2023/05/05 19:01:53;;;;;;;2.4;1.3;;;;;;;;;;;;;
2023/05/05 19:04:19;;;;;;;2.8;1.5;;;;;;;;;;;;;
2023/05/05 19:06:46;;;;;;;1.6;1.3;;;;;;;;;;;;;
2023/05/05 19:09:11;;;;;;;1.8;1.1;;;;;;;;;;;;;
2023/05/05 19:14:13;;;;;;;1.2;1;;;;;;;;;;;;;
2023/05/05 19:16:39;;;;;;;1.1;0.9;;;;;;;;;;;;;
2023/05/05 19:19:04;;;;;;;1.6;0.9;;;;;;;;;;;;;
2023/05/05 19:21:30;;;;;;;0.9;0.9;;;;;;;;;;;;;
2023/05/05 19:23:55;;;;;;;2.2;0.9;;;;;;;;;;;;;
2023/05/05 19:26:20;;;;;;;1.1;1;;;;;;;;;;;;;
2023/05/05 19:28:46;;;;;;;1.6;0.9;;;;;;;;;;;;;
2023/05/05 19:31:11;;;;;;;1.7;0.8;;;;;;;;;;;;;